WetterOnline ( https://www.wetteronline.de )

Wetter aktuell Tröstau

Aktuelles Wetter: Wunsiedel-Schönbrunn (622m)

6-stündlich | Neueste Meldungen
Ortszeit Temperatur Wetter
Mi, 03.03. 7:00 -2.2° C wolkenlos
Mi, 03.03. 1:00 0.5° C wolkenlos
Di, 02.03. 19:00 7.0° C wolkenlos
Di, 02.03. 13:00 10.1° C wolkenlos
Di, 02.03. 7:00 -1.2° C wolkenlos
Di, 02.03. 1:00 1.0° C wolkenlos
Mo, 01.03. 19:00 6.9° C wolkenlos
Mo, 01.03. 13:00 7.6° C wolkenlos
Ortszeit Temperatur Wetter
Mi, 03.03. 10:00 2.7° C wolkig
Mi, 03.03. 9:50 2.7° C wolkig
Mi, 03.03. 9:40 2.1° C wolkig
Mi, 03.03. 9:30 1.0° C wolkig
Mi, 03.03. 9:20 1.0° C wolkig
Mi, 03.03. 9:10 2.0° C wolkig
Mi, 03.03. 9:00 1.4° C leicht bewölkt
Mi, 03.03. 8:30 -0.4° C fast wolkenlos
Mi, 03.03. 8:00 -1.9° C leicht bewölkt
Mi, 03.03. 7:30 -2.2° C leicht bewölkt
Mi, 03.03. 7:00 -2.2° C wolkenlos
Ortszeit Relative Feuchte Sichtweite
Mi, 03.03. 7:00 90% 17 km
Mi, 03.03. 1:00 77% 28 km
Di, 02.03. 19:00 41% 60 km
Di, 02.03. 13:00 46% 50 km
Di, 02.03. 7:00 95% 7 km
Di, 02.03. 1:00 88% 14 km
Mo, 01.03. 19:00 60% 60 km
Mo, 01.03. 13:00 61% 30 km
Ortszeit Relative Feuchte Sichtweite
Mi, 03.03. 10:00 81% 11 km
Mi, 03.03. 9:50 81% -
Mi, 03.03. 9:40 83% -
Mi, 03.03. 9:30 84% 13 km
Mi, 03.03. 9:20 84% -
Mi, 03.03. 9:10 83% -
Mi, 03.03. 9:00 85% 9 km
Mi, 03.03. 8:30 85% 12 km
Mi, 03.03. 8:00 87% 10 km
Mi, 03.03. 7:30 89% 12 km
Mi, 03.03. 7:00 90% 17 km
Ortszeit Niederschlagsmenge Niederschlagsart
Mi, 03.03. 7:00 0.0 l/m2 in 12 Std. -
Mi, 03.03. 1:00 0.0 l/m2 in 6 Std. -
Di, 02.03. 19:00 0.0 l/m2 in 12 Std. -
Di, 02.03. 13:00 0.0 l/m2 in 6 Std. -
Di, 02.03. 7:00 0.0 l/m2 in 12 Std. -
Di, 02.03. 1:00 0.0 l/m2 in 6 Std. -
Mo, 01.03. 19:00 0.0 l/m2 in 12 Std. -
Mo, 01.03. 13:00 0.0 l/m2 in 6 Std. -
Ortszeit Niederschlagsmenge Niederschlagsart
Mi, 03.03. 10:00 0.0 l/m2 in 1 Std. -
Mi, 03.03. 9:50 keine Meldung -
Mi, 03.03. 9:40 keine Meldung -
Mi, 03.03. 9:30 0.0 l/m2 in 1 Std. -
Mi, 03.03. 9:20 keine Meldung -
Mi, 03.03. 9:10 keine Meldung -
Mi, 03.03. 9:00 0.0 l/m2 in 1 Std. -
Mi, 03.03. 8:30 0.0 l/m2 in 1 Std. -
Mi, 03.03. 8:00 0.0 l/m2 in 1 Std. -
Mi, 03.03. 7:30 0.0 l/m2 in 1 Std. -
Mi, 03.03. 7:00 0.0 l/m2 in 1 Std. -
Ortszeit Stärke Spitze Richtung
km/h Bft. km/h Grad Sektor
Mi, 03.03. 7:00 6 1 9 60° NO
Mi, 03.03. 1:00 4 1 18 290° W
Di, 02.03. 19:00 11 2 22 90° O
Di, 02.03. 13:00 14 3 22 100° O
Di, 02.03. 7:00 4 1 11 40° NO
Di, 02.03. 1:00 6 1 19 30° NO
Mo, 01.03. 19:00 11 2 26 100° O
Mo, 01.03. 13:00 11 2 18 60° NO
Ortszeit Stärke Spitze Richtung
km/h Bft. km/h Grad Sektor
Mi, 03.03. 10:00 7 2 14 220° SW
Mi, 03.03. 9:50 7 2 - 220° SW
Mi, 03.03. 9:40 6 1 - 240° SW
Mi, 03.03. 9:30 7 2 14 200° S
Mi, 03.03. 9:20 7 2 - 200° S
Mi, 03.03. 9:10 9 2 - 240° SW
Mi, 03.03. 9:00 7 2 11 230° SW
Mi, 03.03. 8:30 6 1 13 260° W
Mi, 03.03. 8:00 4 1 11 40° NO
Mi, 03.03. 7:30 7 2 11 70° O
Mi, 03.03. 7:00 6 1 9 60° NO
Ortszeit Untergrenze Bedeckung Gattung
total tief tief mittel hoch
Mi, 03.03. 7:00 - 0/8 0/8 - - -
Mi, 03.03. 1:00 - 0/8 0/8 - - -
Di, 02.03. 19:00 - 0/8 0/8 - - -
Di, 02.03. 13:00 - 0/8 0/8 - - -
Di, 02.03. 7:00 - 0/8 0/8 - - -
Di, 02.03. 1:00 - 0/8 0/8 - - -
Mo, 01.03. 19:00 - 0/8 0/8 - - -
Mo, 01.03. 13:00 - 0/8 0/8 - - -
Ortszeit Bedeckungsgrad in Achtel und Wolkenuntergrenze
Mi, 03.03. 10:00 8(7500m) 8(8700m)
Mi, 03.03. 9:50 8(7500m) 8(8700m)
Mi, 03.03. 9:40 8(7800m) 8(8700m)
Mi, 03.03. 9:30 7(7800m) 8(8400m)
Mi, 03.03. 9:20 7(7800m) 8(8400m)
Mi, 03.03. 9:10 8(8100m)
Mi, 03.03. 9:00 6(8100m) 8(8400m)
Mi, 03.03. 8:30 2(8400m) 6(8400m)
Mi, 03.03. 8:00 2(7800m) 3(8400m)
Mi, 03.03. 7:30 5(8100m) 6(8700m)
Mi, 03.03. 7:00 keine Wolken
Ortszeit Luftdruck NN (hPa) Tendenz (hPa in 3 Std.)
Mi, 03.03. 7:00 1034 - 0,3
Mi, 03.03. 1:00 1034 - 0,7
Di, 02.03. 19:00 1033 + 0,4
Di, 02.03. 13:00 1033 - 1,0
Di, 02.03. 7:00 1036 + 0,1
Di, 02.03. 1:00 1036 + 0,2
Mo, 01.03. 19:00 1034 + 0,3
Mo, 01.03. 13:00 1034 - 0,5
Ortszeit Luftdruck NN (hPa) Tendenz (hPa in 3 Std.)
Mi, 03.03. 10:00 1032 - 0,1
Mi, 03.03. 9:50 1032 keine Meldung
Mi, 03.03. 9:40 1032 keine Meldung
Mi, 03.03. 9:30 1033 0,0
Mi, 03.03. 9:20 1033 keine Meldung
Mi, 03.03. 9:10 1032 keine Meldung
Mi, 03.03. 9:00 1032 - 0,4
Mi, 03.03. 8:30 1033 - 0,3
Mi, 03.03. 8:00 1033 - 0,3
Mi, 03.03. 7:30 1033 - 0,4
Mi, 03.03. 7:00 1034 - 0,3
Ortszeit Schneehöhe (cm)
Mi, 03.03. 7:00 0
Mi, 03.03. 1:00 0
Di, 02.03. 19:00 0
Di, 02.03. 13:00 0
Di, 02.03. 7:00 0
Di, 02.03. 1:00 0
Mo, 01.03. 19:00 0
Mo, 01.03. 13:00 0
Ortszeit Schneehöhe (cm)
Mi, 03.03. 10:00 0
Mi, 03.03. 9:50 0
Mi, 03.03. 9:40 0
Mi, 03.03. 9:30 0
Mi, 03.03. 9:20 0
Mi, 03.03. 9:10 0
Mi, 03.03. 9:00 0
Mi, 03.03. 8:30 0
Mi, 03.03. 8:00 0
Mi, 03.03. 7:30 0
Mi, 03.03. 7:00 0
Link zu dieser Seite / Seite empfehlen

Das Wetter in ...